sensor_id;sensor_type;location;lat;lon;timestamp;temperature;humidity
22544;DHT22;11438;52.044;8.716;2023-04-15T00:01:18;11.60;83.10
22544;DHT22;11438;52.044;8.716;2023-04-15T00:03:44;11.60;83.40
22544;DHT22;11438;52.044;8.716;2023-04-15T00:06:10;11.60;83.40
22544;DHT22;11438;52.044;8.716;2023-04-15T00:08:36;11.50;83.50
22544;DHT22;11438;52.044;8.716;2023-04-15T00:11:01;11.50;83.70
22544;DHT22;11438;52.044;8.716;2023-04-15T00:13:32;11.50;83.90
22544;DHT22;11438;52.044;8.716;2023-04-15T00:16:02;11.50;84.00
22544;DHT22;11438;52.044;8.716;2023-04-15T00:18:27;11.50;84.10
22544;DHT22;11438;52.044;8.716;2023-04-15T00:20:54;11.50;84.20
22544;DHT22;11438;52.044;8.716;2023-04-15T00:23:19;11.50;84.30
22544;DHT22;11438;52.044;8.716;2023-04-15T00:25:45;11.50;84.50
22544;DHT22;11438;52.044;8.716;2023-04-15T00:28:11;11.50;84.80
22544;DHT22;11438;52.044;8.716;2023-04-15T00:30:37;11.50;84.80
22544;DHT22;11438;52.044;8.716;2023-04-15T00:33:03;11.50;84.80
22544;DHT22;11438;52.044;8.716;2023-04-15T00:35:29;11.40;84.80
22544;DHT22;11438;52.044;8.716;2023-04-15T00:37:57;11.40;85.10
22544;DHT22;11438;52.044;8.716;2023-04-15T00:40:22;11.50;85.40
22544;DHT22;11438;52.044;8.716;2023-04-15T00:42:49;11.40;85.80
22544;DHT22;11438;52.044;8.716;2023-04-15T00:45:15;11.40;86.00
22544;DHT22;11438;52.044;8.716;2023-04-15T00:47:40;11.40;85.70
22544;DHT22;11438;52.044;8.716;2023-04-15T00:50:07;11.40;85.80
22544;DHT22;11438;52.044;8.716;2023-04-15T00:52:33;11.40;86.80
22544;DHT22;11438;52.044;8.716;2023-04-15T00:54:59;11.40;86.20
22544;DHT22;11438;52.044;8.716;2023-04-15T00:57:25;11.40;86.50
22544;DHT22;11438;52.044;8.716;2023-04-15T00:59:52;11.40;86.70
22544;DHT22;11438;52.044;8.716;2023-04-15T01:02:18;11.30;87.20
22544;DHT22;11438;52.044;8.716;2023-04-15T01:04:44;11.30;87.60
22544;DHT22;11438;52.044;8.716;2023-04-15T01:07:09;11.30;87.70
22544;DHT22;11438;52.044;8.716;2023-04-15T01:09:35;11.30;87.80
22544;DHT22;11438;52.044;8.716;2023-04-15T01:12:00;11.30;88.10
22544;DHT22;11438;52.044;8.716;2023-04-15T01:14:27;11.30;88.50
22544;DHT22;11438;52.044;8.716;2023-04-15T01:16:53;11.30;88.80
22544;DHT22;11438;52.044;8.716;2023-04-15T01:19:19;11.30;88.70
22544;DHT22;11438;52.044;8.716;2023-04-15T01:21:44;11.20;88.80
22544;DHT22;11438;52.044;8.716;2023-04-15T01:24:10;11.30;88.90
22544;DHT22;11438;52.044;8.716;2023-04-15T01:26:37;11.20;89.10
22544;DHT22;11438;52.044;8.716;2023-04-15T01:29:03;11.20;89.30
22544;DHT22;11438;52.044;8.716;2023-04-15T01:31:29;11.20;89.40
22544;DHT22;11438;52.044;8.716;2023-04-15T01:33:58;11.20;89.70
22544;DHT22;11438;52.044;8.716;2023-04-15T01:36:23;11.20;89.80
22544;DHT22;11438;52.044;8.716;2023-04-15T01:38:49;11.20;90.00
22544;DHT22;11438;52.044;8.716;2023-04-15T01:41:15;11.20;90.30
22544;DHT22;11438;52.044;8.716;2023-04-15T01:43:41;11.20;90.40
22544;DHT22;11438;52.044;8.716;2023-04-15T01:46:07;11.20;90.50
22544;DHT22;11438;52.044;8.716;2023-04-15T01:48:32;11.20;90.50
22544;DHT22;11438;52.044;8.716;2023-04-15T01:50:58;11.20;90.60
22544;DHT22;11438;52.044;8.716;2023-04-15T01:53:24;11.10;90.60
22544;DHT22;11438;52.044;8.716;2023-04-15T01:55:50;11.10;90.50
22544;DHT22;11438;52.044;8.716;2023-04-15T01:58:16;11.10;90.50
22544;DHT22;11438;52.044;8.716;2023-04-15T02:00:42;11.10;90.50
22544;DHT22;11438;52.044;8.716;2023-04-15T02:03:08;11.10;90.40
22544;DHT22;11438;52.044;8.716;2023-04-15T02:05:34;11.10;90.40
22544;DHT22;11438;52.044;8.716;2023-04-15T02:08:00;11.10;90.60
22544;DHT22;11438;52.044;8.716;2023-04-15T02:10:25;11.10;90.60
22544;DHT22;11438;52.044;8.716;2023-04-15T02:12:51;11.10;90.70
22544;DHT22;11438;52.044;8.716;2023-04-15T02:15:18;11.10;90.80
22544;DHT22;11438;52.044;8.716;2023-04-15T02:17:43;11.10;90.70
22544;DHT22;11438;52.044;8.716;2023-04-15T02:20:10;11.10;90.60
22544;DHT22;11438;52.044;8.716;2023-04-15T02:22:36;11.20;90.70
22544;DHT22;11438;52.044;8.716;2023-04-15T02:25:02;11.10;90.80
22544;DHT22;11438;52.044;8.716;2023-04-15T02:27:27;11.10;90.80
22544;DHT22;11438;52.044;8.716;2023-04-15T02:29:53;11.10;90.80
22544;DHT22;11438;52.044;8.716;2023-04-15T02:32:18;11.10;90.90
22544;DHT22;11438;52.044;8.716;2023-04-15T02:34:44;11.10;90.90
22544;DHT22;11438;52.044;8.716;2023-04-15T02:37:12;11.10;90.80
22544;DHT22;11438;52.044;8.716;2023-04-15T02:39:37;11.10;90.70
22544;DHT22;11438;52.044;8.716;2023-04-15T02:42:03;11.00;91.00
22544;DHT22;11438;52.044;8.716;2023-04-15T02:44:30;11.00;90.60
22544;DHT22;11438;52.044;8.716;2023-04-15T02:46:57;11.00;90.60
22544;DHT22;11438;52.044;8.716;2023-04-15T02:49:23;11.00;90.60
22544;DHT22;11438;52.044;8.716;2023-04-15T02:51:49;11.00;90.60
22544;DHT22;11438;52.044;8.716;2023-04-15T02:54:19;11.00;90.70
22544;DHT22;11438;52.044;8.716;2023-04-15T02:56:45;11.00;90.80
22544;DHT22;11438;52.044;8.716;2023-04-15T02:59:11;11.00;90.70
22544;DHT22;11438;52.044;8.716;2023-04-15T03:01:37;11.00;90.80
22544;DHT22;11438;52.044;8.716;2023-04-15T03:04:03;11.00;90.80
22544;DHT22;11438;52.044;8.716;2023-04-15T03:06:28;11.00;90.90
22544;DHT22;11438;52.044;8.716;2023-04-15T03:08:54;11.00;90.90
22544;DHT22;11438;52.044;8.716;2023-04-15T03:11:21;10.90;90.90
22544;DHT22;11438;52.044;8.716;2023-04-15T03:13:47;11.00;90.90
22544;DHT22;11438;52.044;8.716;2023-04-15T03:16:12;10.90;90.90
22544;DHT22;11438;52.044;8.716;2023-04-15T03:18:38;10.90;91.30
22544;DHT22;11438;52.044;8.716;2023-04-15T03:21:03;10.90;91.40
22544;DHT22;11438;52.044;8.716;2023-04-15T03:23:30;10.90;91.40
22544;DHT22;11438;52.044;8.716;2023-04-15T03:25:56;10.90;91.50
22544;DHT22;11438;52.044;8.716;2023-04-15T03:28:23;10.90;91.40
22544;DHT22;11438;52.044;8.716;2023-04-15T03:30:48;10.90;91.40
22544;DHT22;11438;52.044;8.716;2023-04-15T03:33:14;10.90;91.50
22544;DHT22;11438;52.044;8.716;2023-04-15T03:35:39;10.80;91.60
22544;DHT22;11438;52.044;8.716;2023-04-15T03:38:05;10.80;91.90
22544;DHT22;11438;52.044;8.716;2023-04-15T03:40:30;10.80;92.00
22544;DHT22;11438;52.044;8.716;2023-04-15T03:42:56;10.80;92.10
22544;DHT22;11438;52.044;8.716;2023-04-15T03:45:21;10.80;92.20
22544;DHT22;11438;52.044;8.716;2023-04-15T03:47:47;10.70;92.20
22544;DHT22;11438;52.044;8.716;2023-04-15T03:50:14;10.70;92.20
22544;DHT22;11438;52.044;8.716;2023-04-15T03:52:39;10.70;92.30
22544;DHT22;11438;52.044;8.716;2023-04-15T03:55:05;10.70;92.40
22544;DHT22;11438;52.044;8.716;2023-04-15T03:57:31;10.70;92.40
22544;DHT22;11438;52.044;8.716;2023-04-15T03:59:56;10.60;92.30
22544;DHT22;11438;52.044;8.716;2023-04-15T04:02:22;10.60;92.20
22544;DHT22;11438;52.044;8.716;2023-04-15T04:04:47;10.60;92.30
22544;DHT22;11438;52.044;8.716;2023-04-15T04:07:17;10.60;92.20
22544;DHT22;11438;52.044;8.716;2023-04-15T04:09:42;10.60;92.20
22544;DHT22;11438;52.044;8.716;2023-04-15T04:12:08;10.60;92.10
22544;DHT22;11438;52.044;8.716;2023-04-15T04:14:33;10.60;92.20
22544;DHT22;11438;52.044;8.716;2023-04-15T04:16:59;10.50;92.20
22544;DHT22;11438;52.044;8.716;2023-04-15T04:19:24;10.50;92.20
22544;DHT22;11438;52.044;8.716;2023-04-15T04:21:50;10.60;92.20
22544;DHT22;11438;52.044;8.716;2023-04-15T04:24:16;10.50;92.20
22544;DHT22;11438;52.044;8.716;2023-04-15T04:26:41;10.50;92.20
22544;DHT22;11438;52.044;8.716;2023-04-15T04:29:07;10.50;92.20
22544;DHT22;11438;52.044;8.716;2023-04-15T04:31:32;10.50;92.20
22544;DHT22;11438;52.044;8.716;2023-04-15T04:33:58;10.60;92.30
22544;DHT22;11438;52.044;8.716;2023-04-15T04:36:23;10.50;92.30
22544;DHT22;11438;52.044;8.716;2023-04-15T04:38:49;10.50;92.40
22544;DHT22;11438;52.044;8.716;2023-04-15T04:41:14;10.50;92.50
22544;DHT22;11438;52.044;8.716;2023-04-15T04:43:40;10.50;92.40
22544;DHT22;11438;52.044;8.716;2023-04-15T04:46:06;10.50;92.50
22544;DHT22;11438;52.044;8.716;2023-04-15T04:48:31;10.60;92.50
22544;DHT22;11438;52.044;8.716;2023-04-15T04:50:57;10.60;92.50
22544;DHT22;11438;52.044;8.716;2023-04-15T04:53:23;10.60;92.60
22544;DHT22;11438;52.044;8.716;2023-04-15T04:55:48;10.60;92.70
22544;DHT22;11438;52.044;8.716;2023-04-15T04:58:14;10.60;92.80
22544;DHT22;11438;52.044;8.716;2023-04-15T05:00:40;10.60;92.80
22544;DHT22;11438;52.044;8.716;2023-04-15T05:03:06;10.70;92.90
22544;DHT22;11438;52.044;8.716;2023-04-15T05:05:31;10.70;93.00
22544;DHT22;11438;52.044;8.716;2023-04-15T05:07:57;10.70;93.10
22544;DHT22;11438;52.044;8.716;2023-04-15T05:10:23;10.70;93.10
22544;DHT22;11438;52.044;8.716;2023-04-15T05:12:48;10.70;93.10
22544;DHT22;11438;52.044;8.716;2023-04-15T05:15:14;10.70;93.20
22544;DHT22;11438;52.044;8.716;2023-04-15T05:17:40;10.70;93.30
22544;DHT22;11438;52.044;8.716;2023-04-15T05:20:06;10.70;93.30
22544;DHT22;11438;52.044;8.716;2023-04-15T05:22:32;10.70;93.40
22544;DHT22;11438;52.044;8.716;2023-04-15T05:24:57;10.70;93.50
22544;DHT22;11438;52.044;8.716;2023-04-15T05:27:23;10.70;93.60
22544;DHT22;11438;52.044;8.716;2023-04-15T05:29:49;10.70;93.60
22544;DHT22;11438;52.044;8.716;2023-04-15T05:32:14;10.70;93.70
22544;DHT22;11438;52.044;8.716;2023-04-15T05:34:40;10.70;93.80
22544;DHT22;11438;52.044;8.716;2023-04-15T05:37:06;10.70;93.90
22544;DHT22;11438;52.044;8.716;2023-04-15T05:39:32;10.70;94.00
22544;DHT22;11438;52.044;8.716;2023-04-15T05:41:58;10.70;94.10
22544;DHT22;11438;52.044;8.716;2023-04-15T05:44:24;10.70;94.20
22544;DHT22;11438;52.044;8.716;2023-04-15T05:46:50;10.70;94.30
22544;DHT22;11438;52.044;8.716;2023-04-15T05:49:15;10.70;94.30
22544;DHT22;11438;52.044;8.716;2023-04-15T05:51:41;10.70;94.40
22544;DHT22;11438;52.044;8.716;2023-04-15T05:54:06;10.80;94.50
22544;DHT22;11438;52.044;8.716;2023-04-15T05:56:32;10.80;94.50
22544;DHT22;11438;52.044;8.716;2023-04-15T05:58:57;10.80;94.50
22544;DHT22;11438;52.044;8.716;2023-04-15T06:01:23;10.80;94.50
22544;DHT22;11438;52.044;8.716;2023-04-15T06:03:48;10.80;94.60
22544;DHT22;11438;52.044;8.716;2023-04-15T06:06:14;10.90;94.70
22544;DHT22;11438;52.044;8.716;2023-04-15T06:08:40;10.90;94.80
22544;DHT22;11438;52.044;8.716;2023-04-15T06:11:05;10.90;94.90
22544;DHT22;11438;52.044;8.716;2023-04-15T06:13:31;10.90;94.90
22544;DHT22;11438;52.044;8.716;2023-04-15T06:15:57;10.90;95.10
22544;DHT22;11438;52.044;8.716;2023-04-15T06:18:22;10.90;95.10
22544;DHT22;11438;52.044;8.716;2023-04-15T06:20:48;10.90;95.10
22544;DHT22;11438;52.044;8.716;2023-04-15T06:23:14;11.00;95.20
22544;DHT22;11438;52.044;8.716;2023-04-15T06:25:39;11.00;95.30
22544;DHT22;11438;52.044;8.716;2023-04-15T06:28:05;11.00;95.50
22544;DHT22;11438;52.044;8.716;2023-04-15T06:30:31;11.00;95.50
22544;DHT22;11438;52.044;8.716;2023-04-15T06:32:56;11.00;95.50
22544;DHT22;11438;52.044;8.716;2023-04-15T06:35:22;11.00;95.60
22544;DHT22;11438;52.044;8.716;2023-04-15T06:37:47;11.00;95.70
22544;DHT22;11438;52.044;8.716;2023-04-15T06:40:13;11.00;95.70
22544;DHT22;11438;52.044;8.716;2023-04-15T06:42:38;11.00;95.90
22544;DHT22;11438;52.044;8.716;2023-04-15T06:45:04;11.00;95.90
22544;DHT22;11438;52.044;8.716;2023-04-15T06:47:31;10.90;96.00
22544;DHT22;11438;52.044;8.716;2023-04-15T06:49:56;10.90;96.10
22544;DHT22;11438;52.044;8.716;2023-04-15T06:52:22;10.90;96.20
22544;DHT22;11438;52.044;8.716;2023-04-15T06:54:47;10.90;96.30
22544;DHT22;11438;52.044;8.716;2023-04-15T06:57:13;10.90;96.30
22544;DHT22;11438;52.044;8.716;2023-04-15T06:59:38;10.90;96.50
22544;DHT22;11438;52.044;8.716;2023-04-15T07:02:04;10.90;96.50
22544;DHT22;11438;52.044;8.716;2023-04-15T07:04:29;10.90;96.60
22544;DHT22;11438;52.044;8.716;2023-04-15T07:06:55;10.90;96.60
22544;DHT22;11438;52.044;8.716;2023-04-15T07:09:22;10.90;96.60
22544;DHT22;11438;52.044;8.716;2023-04-15T07:11:47;10.90;96.90
22544;DHT22;11438;52.044;8.716;2023-04-15T07:14:13;10.90;96.80
22544;DHT22;11438;52.044;8.716;2023-04-15T07:16:39;10.90;96.90
22544;DHT22;11438;52.044;8.716;2023-04-15T07:19:04;10.90;96.90
22544;DHT22;11438;52.044;8.716;2023-04-15T07:21:30;10.90;96.90
22544;DHT22;11438;52.044;8.716;2023-04-15T07:23:56;10.90;96.90
22544;DHT22;11438;52.044;8.716;2023-04-15T07:26:23;10.90;96.90
22544;DHT22;11438;52.044;8.716;2023-04-15T07:28:48;10.90;96.90
22544;DHT22;11438;52.044;8.716;2023-04-15T07:31:14;10.90;97.00
22544;DHT22;11438;52.044;8.716;2023-04-15T07:33:41;10.90;97.00
22544;DHT22;11438;52.044;8.716;2023-04-15T07:36:06;10.90;97.10
22544;DHT22;11438;52.044;8.716;2023-04-15T07:38:32;10.90;97.00
22544;DHT22;11438;52.044;8.716;2023-04-15T07:40:57;10.90;97.10
22544;DHT22;11438;52.044;8.716;2023-04-15T07:43:23;10.90;97.20
22544;DHT22;11438;52.044;8.716;2023-04-15T07:45:49;10.90;97.20
22544;DHT22;11438;52.044;8.716;2023-04-15T07:48:14;10.90;97.40
22544;DHT22;11438;52.044;8.716;2023-04-15T07:50:40;10.90;97.40
22544;DHT22;11438;52.044;8.716;2023-04-15T07:53:06;10.90;97.50
22544;DHT22;11438;52.044;8.716;2023-04-15T07:55:31;10.90;97.50
22544;DHT22;11438;52.044;8.716;2023-04-15T07:57:57;10.90;97.60
22544;DHT22;11438;52.044;8.716;2023-04-15T08:00:22;10.90;97.70
22544;DHT22;11438;52.044;8.716;2023-04-15T08:02:48;10.90;97.70
22544;DHT22;11438;52.044;8.716;2023-04-15T08:05:14;10.90;97.70
22544;DHT22;11438;52.044;8.716;2023-04-15T08:07:39;11.00;97.80
22544;DHT22;11438;52.044;8.716;2023-04-15T08:10:05;11.00;97.80
22544;DHT22;11438;52.044;8.716;2023-04-15T08:12:31;11.00;98.10
22544;DHT22;11438;52.044;8.716;2023-04-15T08:14:57;11.00;98.10
22544;DHT22;11438;52.044;8.716;2023-04-15T08:17:25;11.00;98.20
22544;DHT22;11438;52.044;8.716;2023-04-15T08:19:51;11.00;98.30
22544;DHT22;11438;52.044;8.716;2023-04-15T08:22:18;11.00;98.30
22544;DHT22;11438;52.044;8.716;2023-04-15T08:24:43;11.10;98.30
22544;DHT22;11438;52.044;8.716;2023-04-15T08:27:09;11.10;98.30
22544;DHT22;11438;52.044;8.716;2023-04-15T08:29:34;11.10;98.40
22544;DHT22;11438;52.044;8.716;2023-04-15T08:32:00;11.10;98.40
22544;DHT22;11438;52.044;8.716;2023-04-15T08:34:26;11.20;98.50
22544;DHT22;11438;52.044;8.716;2023-04-15T08:36:52;11.20;98.60
22544;DHT22;11438;52.044;8.716;2023-04-15T08:39:17;11.20;98.70
22544;DHT22;11438;52.044;8.716;2023-04-15T08:41:50;11.20;98.80
22544;DHT22;11438;52.044;8.716;2023-04-15T08:44:17;11.30;98.80
22544;DHT22;11438;52.044;8.716;2023-04-15T08:46:43;11.30;98.80
22544;DHT22;11438;52.044;8.716;2023-04-15T08:49:10;11.30;98.80
22544;DHT22;11438;52.044;8.716;2023-04-15T08:51:40;11.30;98.90
22544;DHT22;11438;52.044;8.716;2023-04-15T08:54:07;11.40;98.90
22544;DHT22;11438;52.044;8.716;2023-04-15T08:56:33;11.40;98.90
22544;DHT22;11438;52.044;8.716;2023-04-15T08:59:00;11.40;99.10
22544;DHT22;11438;52.044;8.716;2023-04-15T09:01:26;11.40;99.10
22544;DHT22;11438;52.044;8.716;2023-04-15T09:03:52;11.40;99.10
22544;DHT22;11438;52.044;8.716;2023-04-15T09:06:23;11.50;99.20
22544;DHT22;11438;52.044;8.716;2023-04-15T09:08:50;11.50;99.30
22544;DHT22;11438;52.044;8.716;2023-04-15T09:11:16;11.50;99.20
22544;DHT22;11438;52.044;8.716;2023-04-15T09:13:42;11.60;99.40
22544;DHT22;11438;52.044;8.716;2023-04-15T09:16:08;11.60;99.40
22544;DHT22;11438;52.044;8.716;2023-04-15T09:18:35;11.60;99.40
22544;DHT22;11438;52.044;8.716;2023-04-15T09:23:31;11.60;99.50
22544;DHT22;11438;52.044;8.716;2023-04-15T09:25:57;11.70;99.40
22544;DHT22;11438;52.044;8.716;2023-04-15T09:28:23;11.70;99.30
22544;DHT22;11438;52.044;8.716;2023-04-15T09:30:51;11.80;99.40
22544;DHT22;11438;52.044;8.716;2023-04-15T09:33:19;11.80;99.50
22544;DHT22;11438;52.044;8.716;2023-04-15T09:35:59;11.80;99.30
22544;DHT22;11438;52.044;8.716;2023-04-15T09:38:25;11.80;99.40
22544;DHT22;11438;52.044;8.716;2023-04-15T09:40:51;11.80;99.30
22544;DHT22;11438;52.044;8.716;2023-04-15T09:43:16;11.80;99.30
22544;DHT22;11438;52.044;8.716;2023-04-15T09:45:50;11.80;99.40
22544;DHT22;11438;52.044;8.716;2023-04-15T09:48:24;11.80;99.50
22544;DHT22;11438;52.044;8.716;2023-04-15T09:50:51;11.80;99.60
22544;DHT22;11438;52.044;8.716;2023-04-15T09:53:23;11.80;99.50
22544;DHT22;11438;52.044;8.716;2023-04-15T09:55:51;11.70;99.60
22544;DHT22;11438;52.044;8.716;2023-04-15T09:58:18;11.80;99.70
22544;DHT22;11438;52.044;8.716;2023-04-15T10:00:47;11.80;99.70
22544;DHT22;11438;52.044;8.716;2023-04-15T10:03:20;11.70;99.80
22544;DHT22;11438;52.044;8.716;2023-04-15T10:05:51;11.80;99.80
22544;DHT22;11438;52.044;8.716;2023-04-15T10:08:18;11.80;99.90
22544;DHT22;11438;52.044;8.716;2023-04-15T10:10:45;11.80;99.90
22544;DHT22;11438;52.044;8.716;2023-04-15T10:13:12;11.70;99.90
22544;DHT22;11438;52.044;8.716;2023-04-15T10:15:40;11.80;99.90
22544;DHT22;11438;52.044;8.716;2023-04-15T10:18:07;11.80;99.90
22544;DHT22;11438;52.044;8.716;2023-04-15T10:20:34;11.80;99.90
22544;DHT22;11438;52.044;8.716;2023-04-15T10:23:01;11.80;99.90
22544;DHT22;11438;52.044;8.716;2023-04-15T10:25:28;11.80;99.90
22544;DHT22;11438;52.044;8.716;2023-04-15T10:27:53;11.80;99.90
22544;DHT22;11438;52.044;8.716;2023-04-15T10:30:21;11.80;99.90
22544;DHT22;11438;52.044;8.716;2023-04-15T10:32:47;11.80;99.90
22544;DHT22;11438;52.044;8.716;2023-04-15T10:35:14;11.80;99.90
22544;DHT22;11438;52.044;8.716;2023-04-15T10:37:40;11.80;99.90
22544;DHT22;11438;52.044;8.716;2023-04-15T10:40:28;11.80;99.90
22544;DHT22;11438;52.044;8.716;2023-04-15T10:42:56;11.80;99.90
22544;DHT22;11438;52.044;8.716;2023-04-15T10:45:25;11.90;99.90
22544;DHT22;11438;52.044;8.716;2023-04-15T10:47:55;11.90;99.90
22544;DHT22;11438;52.044;8.716;2023-04-15T10:50:21;11.90;99.90
22544;DHT22;11438;52.044;8.716;2023-04-15T10:52:50;11.90;99.90
22544;DHT22;11438;52.044;8.716;2023-04-15T10:55:29;11.90;99.90
22544;DHT22;11438;52.044;8.716;2023-04-15T10:57:59;11.90;99.90
22544;DHT22;11438;52.044;8.716;2023-04-15T11:00:28;11.90;99.90
22544;DHT22;11438;52.044;8.716;2023-04-15T11:02:59;11.90;99.90
22544;DHT22;11438;52.044;8.716;2023-04-15T11:08:04;11.90;99.90
22544;DHT22;11438;52.044;8.716;2023-04-15T11:13:01;11.90;99.90
22544;DHT22;11438;52.044;8.716;2023-04-15T11:15:39;11.90;99.90
22544;DHT22;11438;52.044;8.716;2023-04-15T11:18:15;11.90;99.90
22544;DHT22;11438;52.044;8.716;2023-04-15T11:20:42;12.00;99.90
22544;DHT22;11438;52.044;8.716;2023-04-15T11:23:12;12.00;99.90
22544;DHT22;11438;52.044;8.716;2023-04-15T11:25:38;12.00;99.90
22544;DHT22;11438;52.044;8.716;2023-04-15T11:28:04;12.00;99.90
22544;DHT22;11438;52.044;8.716;2023-04-15T11:30:35;12.00;99.90
22544;DHT22;11438;52.044;8.716;2023-04-15T11:33:04;12.00;99.90
22544;DHT22;11438;52.044;8.716;2023-04-15T11:35:30;12.00;99.90
22544;DHT22;11438;52.044;8.716;2023-04-15T11:37:55;12.10;99.90
22544;DHT22;11438;52.044;8.716;2023-04-15T11:40:25;12.10;99.90
22544;DHT22;11438;52.044;8.716;2023-04-15T11:45:37;12.10;99.90
22544;DHT22;11438;52.044;8.716;2023-04-15T11:48:07;12.10;99.90
22544;DHT22;11438;52.044;8.716;2023-04-15T11:50:33;12.10;99.90
22544;DHT22;11438;52.044;8.716;2023-04-15T11:53:00;12.10;99.90
22544;DHT22;11438;52.044;8.716;2023-04-15T11:55:27;12.10;99.90
22544;DHT22;11438;52.044;8.716;2023-04-15T11:58:17;12.10;99.90
22544;DHT22;11438;52.044;8.716;2023-04-15T12:00:51;12.10;99.90
22544;DHT22;11438;52.044;8.716;2023-04-15T12:03:24;12.20;99.90
22544;DHT22;11438;52.044;8.716;2023-04-15T12:06:09;12.20;99.90
22544;DHT22;11438;52.044;8.716;2023-04-15T12:11:20;12.20;99.90
22544;DHT22;11438;52.044;8.716;2023-04-15T12:13:47;12.20;99.90
22544;DHT22;11438;52.044;8.716;2023-04-15T12:16:16;12.20;99.90
22544;DHT22;11438;52.044;8.716;2023-04-15T12:18:45;12.20;99.90
22544;DHT22;11438;52.044;8.716;2023-04-15T12:21:11;12.20;99.90
22544;DHT22;11438;52.044;8.716;2023-04-15T12:23:47;12.20;99.90
22544;DHT22;11438;52.044;8.716;2023-04-15T12:26:14;12.20;99.90
22544;DHT22;11438;52.044;8.716;2023-04-15T12:28:40;12.20;99.90
22544;DHT22;11438;52.044;8.716;2023-04-15T12:31:11;12.20;99.90
22544;DHT22;11438;52.044;8.716;2023-04-15T12:33:37;12.20;99.90
22544;DHT22;11438;52.044;8.716;2023-04-15T12:36:04;12.20;99.90
22544;DHT22;11438;52.044;8.716;2023-04-15T12:38:30;12.20;99.90
22544;DHT22;11438;52.044;8.716;2023-04-15T12:40:57;12.20;99.90
22544;DHT22;11438;52.044;8.716;2023-04-15T12:43:22;12.20;99.90
22544;DHT22;11438;52.044;8.716;2023-04-15T12:45:48;12.30;99.90
22544;DHT22;11438;52.044;8.716;2023-04-15T12:48:13;12.30;99.90
22544;DHT22;11438;52.044;8.716;2023-04-15T12:50:39;12.20;99.90
22544;DHT22;11438;52.044;8.716;2023-04-15T12:53:05;12.30;99.90
22544;DHT22;11438;52.044;8.716;2023-04-15T12:55:30;12.20;99.90
22544;DHT22;11438;52.044;8.716;2023-04-15T12:57:56;12.30;99.90
22544;DHT22;11438;52.044;8.716;2023-04-15T13:00:21;12.30;99.90
22544;DHT22;11438;52.044;8.716;2023-04-15T13:02:47;12.30;99.90
22544;DHT22;11438;52.044;8.716;2023-04-15T13:05:13;12.30;99.90
22544;DHT22;11438;52.044;8.716;2023-04-15T13:07:40;12.30;99.90
22544;DHT22;11438;52.044;8.716;2023-04-15T13:10:06;12.20;99.90
22544;DHT22;11438;52.044;8.716;2023-04-15T13:12:32;12.30;99.90
22544;DHT22;11438;52.044;8.716;2023-04-15T13:15:01;12.30;99.90
22544;DHT22;11438;52.044;8.716;2023-04-15T13:17:26;12.30;99.90
22544;DHT22;11438;52.044;8.716;2023-04-15T13:19:52;12.30;99.90
22544;DHT22;11438;52.044;8.716;2023-04-15T13:22:17;12.20;99.90
22544;DHT22;11438;52.044;8.716;2023-04-15T13:24:43;12.30;99.90
22544;DHT22;11438;52.044;8.716;2023-04-15T13:27:08;12.30;99.90
22544;DHT22;11438;52.044;8.716;2023-04-15T13:29:34;12.30;99.90
22544;DHT22;11438;52.044;8.716;2023-04-15T13:31:59;12.30;99.90
22544;DHT22;11438;52.044;8.716;2023-04-15T13:34:25;12.30;99.90
22544;DHT22;11438;52.044;8.716;2023-04-15T13:36:51;12.30;99.90
22544;DHT22;11438;52.044;8.716;2023-04-15T13:39:16;12.30;99.90
22544;DHT22;11438;52.044;8.716;2023-04-15T13:41:42;12.20;99.90
22544;DHT22;11438;52.044;8.716;2023-04-15T13:44:07;12.30;99.90
22544;DHT22;11438;52.044;8.716;2023-04-15T13:46:33;12.30;99.90
22544;DHT22;11438;52.044;8.716;2023-04-15T13:48:58;12.30;99.90
22544;DHT22;11438;52.044;8.716;2023-04-15T13:51:24;12.30;99.90
22544;DHT22;11438;52.044;8.716;2023-04-15T13:53:51;12.30;99.90
22544;DHT22;11438;52.044;8.716;2023-04-15T13:56:16;12.40;99.90
22544;DHT22;11438;52.044;8.716;2023-04-15T13:58:42;12.40;99.90
22544;DHT22;11438;52.044;8.716;2023-04-15T14:01:07;12.40;99.90
22544;DHT22;11438;52.044;8.716;2023-04-15T14:03:34;12.40;99.90
22544;DHT22;11438;52.044;8.716;2023-04-15T14:05:59;12.40;99.90
22544;DHT22;11438;52.044;8.716;2023-04-15T14:08:25;12.40;99.90
22544;DHT22;11438;52.044;8.716;2023-04-15T14:10:51;12.40;99.90
22544;DHT22;11438;52.044;8.716;2023-04-15T14:13:16;12.40;99.90
22544;DHT22;11438;52.044;8.716;2023-04-15T14:15:43;12.40;99.90
22544;DHT22;11438;52.044;8.716;2023-04-15T14:18:09;12.40;99.90
22544;DHT22;11438;52.044;8.716;2023-04-15T14:20:34;12.40;99.90
22544;DHT22;11438;52.044;8.716;2023-04-15T14:23:00;12.40;99.90
22544;DHT22;11438;52.044;8.716;2023-04-15T14:27:51;12.40;99.90
22544;DHT22;11438;52.044;8.716;2023-04-15T14:30:16;12.40;99.90
22544;DHT22;11438;52.044;8.716;2023-04-15T14:32:42;12.40;99.90
22544;DHT22;11438;52.044;8.716;2023-04-15T14:35:08;12.40;99.90
22544;DHT22;11438;52.044;8.716;2023-04-15T14:37:33;12.40;99.90
22544;DHT22;11438;52.044;8.716;2023-04-15T14:39:59;12.40;99.90
22544;DHT22;11438;52.044;8.716;2023-04-15T14:42:24;12.40;99.90
22544;DHT22;11438;52.044;8.716;2023-04-15T14:44:50;12.40;99.90
22544;DHT22;11438;52.044;8.716;2023-04-15T14:47:15;12.40;99.90
22544;DHT22;11438;52.044;8.716;2023-04-15T14:49:41;12.50;99.90
22544;DHT22;11438;52.044;8.716;2023-04-15T14:52:07;12.50;99.90
22544;DHT22;11438;52.044;8.716;2023-04-15T14:54:32;12.50;99.90
22544;DHT22;11438;52.044;8.716;2023-04-15T14:56:58;12.50;99.90
22544;DHT22;11438;52.044;8.716;2023-04-15T14:59:23;12.50;99.90
22544;DHT22;11438;52.044;8.716;2023-04-15T15:01:49;12.50;99.90
22544;DHT22;11438;52.044;8.716;2023-04-15T15:04:15;12.60;99.90
22544;DHT22;11438;52.044;8.716;2023-04-15T15:06:40;12.60;99.90
22544;DHT22;11438;52.044;8.716;2023-04-15T15:09:06;12.60;99.90
22544;DHT22;11438;52.044;8.716;2023-04-15T15:11:32;12.60;99.90
22544;DHT22;11438;52.044;8.716;2023-04-15T15:13:57;12.50;99.90
22544;DHT22;11438;52.044;8.716;2023-04-15T15:16:23;12.60;99.90
22544;DHT22;11438;52.044;8.716;2023-04-15T15:18:49;12.60;99.90
22544;DHT22;11438;52.044;8.716;2023-04-15T15:21:16;12.60;99.90
22544;DHT22;11438;52.044;8.716;2023-04-15T15:23:41;12.60;99.90
22544;DHT22;11438;52.044;8.716;2023-04-15T15:26:07;12.60;99.90
22544;DHT22;11438;52.044;8.716;2023-04-15T15:28:33;12.60;99.90
22544;DHT22;11438;52.044;8.716;2023-04-15T15:30:59;12.70;99.90
22544;DHT22;11438;52.044;8.716;2023-04-15T15:33:24;12.70;99.90
22544;DHT22;11438;52.044;8.716;2023-04-15T15:35:50;12.70;99.90
22544;DHT22;11438;52.044;8.716;2023-04-15T15:38:15;12.70;99.90
22544;DHT22;11438;52.044;8.716;2023-04-15T15:40:41;12.70;99.90